Time;durP1;ratioP1;P1;durP2;ratioP2;P2;SDS_P1;SDS_P2;PMS_P1;PMS_P2;Temp;Humidity;BMP_temperature;BMP_pressure;BME280_temperature;BME280_humidity;BME280_pressure;Samples;Min_cycle;Max_cycle;Signal;HPM_P1;HPM_P2
2021/11/10 00:02:31;;;;;;;3.80;2.30;;;;;;;-0.21;59.53;102380.93;1727255;80;21136;-87
2021/11/10 00:05:21;;;;;;;3.13;2.07;;;;;;;-0.21;59.52;102387.05;1682097;82;21057;-88
2021/11/10 00:07:53;;;;;;;3.63;1.93;;;;;;;-0.22;59.59;102381.40;1685470;82;21714;-88
2021/11/10 00:10:33;;;;;;;2.80;1.83;;;;;;;-0.22;59.52;102399.75;1660584;84;21072;-89
2021/11/10 00:13:19;;;;;;;2.63;2.13;;;;;;;-0.26;59.63;102390.79;1716298;81;20978;-89
2021/11/10 00:15:54;;;;;;;1.50;1.40;;;;;;;-0.32;59.74;102388.41;1664851;85;21045;-88
2021/11/10 00:18:33;;;;;;;2.70;2.00;;;;;;;-0.37;59.84;102396.49;1683021;84;21100;-91
2021/11/10 00:21:15;;;;;;;4.07;2.50;;;;;;;-0.44;60.00;102398.98;1683637;84;21064;-89
2021/11/10 00:23:54;;;;;;;3.00;2.13;;;;;;;-0.48;60.22;102400.03;1678642;84;20985;-88
2021/11/10 00:26:51;;;;;;;2.40;1.97;;;;;;;-0.54;60.49;102411.62;1687192;83;20998;-89
2021/11/10 00:29:21;;;;;;;2.93;2.50;;;;;;;-0.57;60.61;102406.51;1687385;82;21590;-88
2021/11/10 00:31:59;;;;;;;3.65;2.67;;;;;;;-0.60;60.63;102400.11;1686920;84;21032;-88
2021/11/10 00:34:38;;;;;;;5.37;2.90;;;;;;;-0.62;60.77;102405.41;1681488;82;21003;-89
2021/11/10 00:37:14;;;;;;;4.37;2.70;;;;;;;-0.60;60.71;102410.59;1675748;84;21006;-89
2021/11/10 00:39:48;;;;;;;2.60;2.40;;;;;;;-0.63;60.76;102422.02;1608480;87;21656;-88
2021/11/10 00:42:26;;;;;;;4.42;2.42;;;;;;;-0.62;60.83;102422.43;1674720;84;21021;-88
2021/11/10 00:44:56;;;;;;;4.80;2.30;;;;;;;-0.59;60.85;102424.91;1694114;82;20993;-89
2021/11/10 00:47:28;;;;;;;4.83;2.70;;;;;;;-0.56;60.78;102425.72;1688235;81;21002;-88
2021/11/10 00:50:09;;;;;;;3.60;2.50;;;;;;;-0.53;60.77;102430.34;1713253;81;20977;-88
2021/11/10 00:52:37;;;;;;;3.33;2.30;;;;;;;-0.46;60.71;102429.17;1686604;84;21551;-88
2021/11/10 00:55:13;;;;;;;3.97;3.27;;;;;;;-0.43;60.66;102430.83;1686116;82;21096;-88
2021/11/10 00:57:51;;;;;;;8.03;6.33;;;;;;;-1.63;60.47;102232.50;1689160;81;21018;-88
2021/11/10 01:00:24;;;;;;;8.23;4.37;;;;;;;-0.39;60.46;102429.77;1696122;82;21010;-88
2021/11/10 01:03:01;;;;;;;6.63;3.90;;;;;;;-0.38;60.44;102421.45;1680147;83;21029;-88
2021/11/10 01:05:40;;;;;;;6.80;4.13;;;;;;;-0.45;60.57;102425.65;1714662;82;21277;-88
2021/11/10 01:08:30;;;;;;;5.73;3.53;;;;;;;-0.49;60.67;102411.42;1679240;83;20989;-86
2021/11/10 01:11:08;;;;;;;7.33;4.33;;;;;;;-0.48;60.76;102403.97;1688318;83;21033;-90
2021/11/10 01:13:49;;;;;;;6.23;3.97;;;;;;;-0.48;60.84;102421.84;1681676;84;21034;-87
2021/11/10 01:16:23;;;;;;;8.00;5.03;;;;;;;-0.44;60.87;102426.49;1680212;84;21065;-87
2021/11/10 01:18:57;;;;;;;6.20;4.27;;;;;;;-0.45;60.91;102433.97;1628227;86;21514;-87
2021/11/10 01:21:31;;;;;;;8.47;4.33;;;;;;;-0.45;61.03;102440.52;1645505;85;21068;-88
2021/11/10 01:24:07;;;;;;;4.77;3.83;;;;;;;-0.43;61.11;102441.31;1685500;83;21010;-88
2021/11/10 01:26:39;;;;;;;6.97;4.07;;;;;;;-0.40;61.19;102452.95;1695471;82;21022;-87
2021/11/10 01:29:10;;;;;;;5.90;4.43;;;;;;;-0.36;61.37;102451.89;1621823;85;21014;-90
2021/11/10 01:31:46;;;;;;;7.23;4.27;;;;;;;-0.36;61.46;102452.36;1672976;83;20986;-87
2021/11/10 01:34:19;;;;;;;6.53;4.00;;;;;;;-0.35;61.63;102460.16;1683276;83;20994;-86
2021/11/10 01:36:54;;;;;;;7.73;4.00;;;;;;;-0.36;61.84;102457.14;1659611;83;21050;-88
2021/11/10 01:39:25;;;;;;;7.13;4.73;;;;;;;-0.32;62.02;102463.98;1697217;82;21014;-87
2021/11/10 01:42:02;;;;;;;6.23;4.53;;;;;;;-0.34;62.16;102454.02;1726470;81;20976;-89
2021/11/10 01:44:38;;;;;;;6.90;3.70;;;;;;;-0.35;62.38;102449.69;1677851;83;21004;-89
2021/11/10 01:47:13;;;;;;;6.78;4.20;;;;;;;-0.37;62.64;102444.13;1659879;85;21299;-88
2021/11/10 01:49:56;;;;;;;6.43;4.13;;;;;;;-0.38;62.83;102457.66;1695436;82;21042;-88
2021/11/10 01:52:26;;;;;;;8.18;4.83;;;;;;;-0.43;63.30;102451.79;1700497;83;21047;-87
2021/11/10 01:54:59;;;;;;;6.07;4.53;;;;;;;-0.51;63.57;102461.28;1706728;83;21124;-87
2021/11/10 01:57:37;;;;;;;6.13;4.30;;;;;;;-0.54;64.05;102456.63;1688856;84;21018;-86
2021/11/10 02:00:26;;;;;;;6.67;5.40;;;;;;;-0.56;64.27;102444.90;1685945;82;21054;-86
2021/11/10 02:02:57;;;;;;;5.47;4.57;;;;;;;-0.54;64.46;102439.60;1705760;83;20993;-88
2021/11/10 02:05:37;;;;;;;7.40;4.90;;;;;;;-0.56;64.56;102450.61;1677237;83;21091;-87
2021/11/10 02:08:20;;;;;;;7.33;5.42;;;;;;;-0.57;64.73;102447.11;1677880;82;21051;-89
2021/11/10 02:11:15;;;;;;;8.00;5.25;;;;;;;-0.61;64.99;102454.24;1671293;84;21054;-88
2021/11/10 02:13:44;;;;;;;5.23;4.10;;;;;;;-0.60;65.33;102463.82;1681187;84;21032;-87
2021/11/10 02:16:20;;;;;;;10.13;5.40;;;;;;;-0.58;65.62;102451.97;1722043;82;20996;-86
2021/11/10 02:18:54;;;;;;;6.10;4.33;;;;;;;-0.57;65.76;102451.04;1667785;84;20981;-86
2021/11/10 02:21:29;;;;;;;4.57;3.23;;;;;;;-0.48;65.87;102457.67;1702272;83;21017;-86
2021/11/10 02:24:07;;;;;;;7.33;3.80;;;;;;;-0.44;65.99;102460.09;1723999;81;21017;-86
2021/11/10 02:26:41;;;;;;;5.90;3.73;;;;;;;-0.38;65.98;102464.22;1697216;83;21104;-89
2021/11/10 02:29:25;;;;;;;6.87;3.93;;;;;;;-0.36;66.26;102468.08;1731128;81;21033;-87
2021/11/10 02:32:00;;;;;;;12.10;6.03;;;;;;;-0.34;66.22;102478.05;1707035;81;21073;-87
2021/11/10 02:34:29;;;;;;;12.67;7.33;;;;;;;-0.35;66.24;102468.50;1726714;82;21093;-87
2021/11/10 02:37:01;;;;;;;23.17;11.97;;;;;;;-0.33;66.19;102468.81;1727587;82;21037;-87
2021/11/10 02:39:33;;;;;;;31.13;16.17;;;;;;;-0.29;66.12;102474.31;1722755;82;20986;-86
2021/11/10 02:42:09;;;;;;;24.77;12.67;;;;;;;-0.27;66.08;102481.64;1723792;82;21602;-86
2021/11/10 02:44:39;;;;;;;17.47;9.87;;;;;;;-0.23;66.00;102486.30;1678077;83;21112;-86
2021/11/10 02:47:10;;;;;;;17.80;10.63;;;;;;;-0.26;65.94;102478.13;1651453;83;21081;-88
2021/11/10 02:49:38;;;;;;;16.80;9.33;;;;;;;-0.24;65.97;102478.91;1668322;84;21490;-87
2021/11/10 02:52:22;;;;;;;11.97;7.23;;;;;;;-0.26;65.97;102474.19;1655278;84;21033;-87
2021/11/10 02:54:57;;;;;;;10.37;6.63;;;;;;;-0.23;65.96;102475.38;1665894;84;21007;-90
2021/11/10 02:57:32;;;;;;;11.10;6.72;;;;;;;-0.23;65.94;102476.69;1698851;83;21068;-87
2021/11/10 03:00:13;;;;;;;10.80;6.43;;;;;;;-0.20;65.92;102474.39;1670782;83;21048;-88
2021/11/10 03:02:54;;;;;;;11.00;6.67;;;;;;;-0.21;65.82;102481.41;1652722;83;21022;-89
2021/11/10 03:05:31;;;;;;;13.40;8.03;;;;;;;-0.23;65.88;102479.31;1701702;83;21048;-87
2021/11/10 03:08:02;;;;;;;17.77;11.17;;;;;;;-0.24;65.91;102491.16;1674081;84;21048;-87
2021/11/10 03:10:32;;;;;;;11.97;8.30;;;;;;;-0.28;65.96;102485.66;1679151;84;20978;-86
2021/11/10 03:13:08;;;;;;;15.83;9.23;;;;;;;-0.27;66.05;102493.44;1724616;80;20995;-87
2021/11/10 03:15:45;;;;;;;19.23;9.63;;;;;;;-0.29;66.00;102500.52;1698587;83;21058;-88
2021/11/10 03:18:20;;;;;;;15.57;9.37;;;;;;;-0.26;65.97;102493.00;1678473;84;21525;-88
2021/11/10 03:20:56;;;;;;;16.87;9.40;;;;;;;-0.27;65.94;102496.06;1677359;84;21076;-88
2021/11/10 03:23:34;;;;;;;19.20;8.40;;;;;;;-0.31;65.97;102498.89;1677768;84;21025;-88
2021/11/10 03:26:08;;;;;;;13.43;8.63;;;;;;;-0.36;66.15;102508.70;1651334;85;21068;-88
2021/11/10 03:28:47;;;;;;;14.17;7.90;;;;;;;-0.38;66.29;102515.31;1664514;84;21663;-88
2021/11/10 03:31:26;;;;;;;16.10;8.07;;;;;;;-0.37;66.39;102506.55;1680273;84;21658;-91
2021/11/10 03:34:15;;;;;;;14.77;9.07;;;;;;;-0.38;66.41;102505.30;1707144;83;21483;-88
2021/11/10 03:36:49;;;;;;;13.63;8.97;;;;;;;-0.34;66.43;102505.13;1691543;84;21037;-88
2021/11/10 03:39:24;;;;;;;12.83;8.80;;;;;;;-0.31;66.37;102497.11;1657150;84;21035;-86
2021/11/10 03:42:01;;;;;;;14.30;9.38;;;;;;;-0.27;66.24;102493.91;1677061;83;21556;-89
2021/11/10 03:44:42;;;;;;;12.58;7.75;;;;;;;-0.27;66.23;102484.27;1669929;81;21179;-88
2021/11/10 03:47:16;;;;;;;15.53;10.23;;;;;;;-0.26;66.18;102479.44;1668406;83;21017;-87
2021/11/10 03:49:52;;;;;;;15.37;9.63;;;;;;;-0.27;66.19;102488.20;1704142;82;21051;-87
2021/11/10 03:52:33;;;;;;;13.43;8.90;;;;;;;-0.60;66.12;102440.24;1710708;81;20972;-88
2021/11/10 03:55:08;;;;;;;16.93;10.50;;;;;;;-0.28;66.21;102491.75;1691435;83;21061;-88
2021/11/10 03:57:52;;;;;;;14.03;9.77;;;;;;;-0.33;66.10;102486.31;1702455;82;21180;-88
2021/11/10 04:00:28;;;;;;;15.55;9.15;;;;;;;-0.35;66.29;102496.85;1710801;83;21045;-92
2021/11/10 04:03:00;;;;;;;14.83;9.53;;;;;;;-0.36;66.37;102500.38;1713391;83;21057;-88
2021/11/10 04:05:48;;;;;;;14.77;9.77;;;;;;;-0.36;66.42;102503.46;1684875;84;21276;-88
2021/11/10 04:08:27;;;;;;;14.80;9.57;;;;;;;-0.41;66.34;102495.34;1645160;86;21105;-87
2021/11/10 04:11:01;;;;;;;15.57;9.63;;;;;;;-0.42;66.37;102500.17;1704028;81;21007;-88
2021/11/10 04:13:45;;;;;;;14.13;9.47;;;;;;;-0.43;66.45;102505.50;1642422;83;21029;-88
2021/11/10 04:16:34;;;;;;;14.77;8.87;;;;;;;-0.44;66.49;102502.47;1705418;83;21190;-87
2021/11/10 04:19:15;;;;;;;15.10;10.07;;;;;;;-0.45;66.55;102508.65;1678761;82;21623;-87
2021/11/10 04:21:56;;;;;;;17.10;10.17;;;;;;;-0.50;66.65;102511.44;1679504;82;21024;-86
2021/11/10 04:24:33;;;;;;;14.97;9.40;;;;;;;-0.51;66.59;102517.61;1661730;83;21040;-90
2021/11/10 04:27:18;;;;;;;14.83;8.97;;;;;;;-0.54;66.75;102510.33;1671042;84;20979;-91
2021/11/10 04:29:46;;;;;;;11.80;8.03;;;;;;;-0.53;66.76;102506.31;1693364;83;20978;-90
2021/11/10 04:32:25;;;;;;;17.57;11.93;;;;;;;-0.55;66.84;102499.45;1702484;84;21344;-90
2021/11/10 04:35:25;;;;;;;19.13;11.23;;;;;;;-0.56;66.83;102505.62;1718632;82;21012;-88
2021/11/10 04:40:56;;;;;;;19.10;12.37;;;;;;;-0.61;66.98;102496.16;1721370;82;20971;-89
2021/11/10 04:44:01;;;;;;;23.15;15.25;;;;;;;-0.59;67.01;102502.18;1721139;82;21106;-92
2021/11/10 04:46:39;;;;;;;28.83;16.20;;;;;;;-0.65;66.98;102505.52;1701518;83;21099;-89
2021/11/10 04:49:17;;;;;;;29.13;17.80;;;;;;;-0.70;67.06;102500.92;1674167;84;21047;-89
2021/11/10 04:51:53;;;;;;;34.83;18.93;;;;;;;-0.74;67.15;102504.58;1699848;83;21065;-91
2021/11/10 04:54:30;;;;;;;32.47;18.10;;;;;;;-0.80;67.25;102501.28;1695026;83;21531;-88
2021/11/10 04:57:06;;;;;;;30.43;18.10;;;;;;;-1.48;67.29;102390.57;1696092;82;21621;-88
2021/11/10 04:59:44;;;;;;;32.83;18.97;;;;;;;-0.89;67.54;102490.33;1713182;82;21449;-89
2021/11/10 05:02:31;;;;;;;35.17;21.10;;;;;;;-0.89;67.75;102493.80;1685000;83;21628;-92
2021/11/10 05:05:16;;;;;;;26.43;17.00;;;;;;;-0.88;67.89;102499.44;1679800;84;21036;-89
2021/11/10 05:07:57;;;;;;;26.13;16.03;;;;;;;-0.84;68.01;102504.11;1679352;84;21118;-87
2021/11/10 05:10:46;;;;;;;23.23;15.73;;;;;;;-0.81;68.21;102497.41;1667721;84;20980;-88
2021/11/10 05:13:44;;;;;;;;;;;;;;;;;;;;;
2021/11/10 05:16:27;;;;;;;27.47;16.33;;;;;;;-0.78;68.53;102503.85;1574504;86;20967;-89
2021/11/10 05:19:02;;;;;;;24.40;15.50;;;;;;;-0.75;68.30;102508.98;1579877;89;21144;-88
2021/11/10 05:21:50;;;;;;;24.32;15.30;;;;;;;-0.72;68.12;102519.31;1579712;87;21064;-89
2021/11/10 05:24:39;;;;;;;;;;;;;;;;;;;;;
2021/11/10 05:27:32;;;;;;;23.33;16.00;;;;;;;-0.69;67.93;102541.46;1691137;85;21069;-90
2021/11/10 05:30:11;;;;;;;19.33;13.13;;;;;;;-0.59;67.96;102545.40;1713206;83;20994;-88
2021/11/10 05:32:49;;;;;;;22.23;13.43;;;;;;;-0.14;68.30;102542.73;1708181;83;20988;-90
2021/11/10 05:35:44;;;;;;;19.30;13.23;;;;;;;0.57;66.68;102543.98;1691857;82;20989;-89
2021/11/10 05:38:26;;;;;;;23.30;14.33;;;;;;;1.11;64.81;102538.02;1718128;82;21020;-89
2021/11/10 05:41:55;;;;;;;22.33;13.90;;;;;;;1.32;62.95;102542.73;1633604;86;20970;-90
2021/11/10 05:44:59;;;;;;;26.20;14.30;;;;;;;1.24;61.99;102542.23;1625767;84;21049;-90
2021/11/10 05:47:47;;;;;;;19.50;13.60;;;;;;;0.96;62.33;102544.40;1656988;83;21079;-90
2021/11/10 05:50:30;;;;;;;21.07;14.33;;;;;;;0.83;62.61;102548.95;1655750;85;20964;-90
2021/11/10 05:53:34;;;;;;;16.53;13.10;;;;;;;0.74;62.71;102546.31;1572496;85;21054;-88
2021/11/10 05:56:21;;;;;;;17.20;12.70;;;;;;;0.70;62.82;102550.84;1601266;85;21384;-89
2021/11/10 05:59:08;;;;;;;20.23;11.23;;;;;;;0.67;62.72;102560.62;1605562;85;21003;-90
2021/11/10 06:02:22;;;;;;;17.80;10.40;;;;;;;0.65;62.62;102561.16;1629967;85;20948;-88
2021/11/10 06:04:49;;;;;;;13.43;9.73;;;;;;;0.62;62.46;102561.30;1585191;87;21675;-62
2021/11/10 06:07:15;;;;;;;15.30;9.50;;;;;;;0.56;62.46;102558.48;1611397;87;21574;-60
2021/11/10 06:09:43;;;;;;;14.47;9.10;;;;;;;0.58;62.66;102571.95;1610051;87;21103;-62
2021/11/10 06:12:10;;;;;;;17.95;11.18;;;;;;;0.62;62.49;102580.98;1617257;87;21615;-61
2021/11/10 06:14:36;;;;;;;15.63;10.80;;;;;;;0.67;62.24;102573.76;1625352;86;21516;-63
2021/11/10 06:17:04;;;;;;;18.82;11.78;;;;;;;0.66;62.25;102570.29;1625599;86;21106;-63
2021/11/10 06:19:32;;;;;;;14.40;11.07;;;;;;;0.73;62.26;102570.84;1635765;87;21044;-61
2021/11/10 06:21:58;;;;;;;15.90;10.80;;;;;;;0.81;62.11;102559.55;1596118;88;21510;-62
2021/11/10 06:24:25;;;;;;;12.58;10.23;;;;;;;0.91;61.74;102563.45;1624834;87;21607;-61
2021/11/10 06:26:51;;;;;;;13.80;9.83;;;;;;;1.00;61.76;102569.19;1599707;88;21128;-62
2021/11/10 06:29:18;;;;;;;16.70;9.00;;;;;;;1.13;61.60;102563.74;1624395;87;22267;-62
2021/11/10 06:31:44;;;;;;;15.63;9.35;;;;;;;1.22;61.15;102566.41;1616587;87;21104;-61
2021/11/10 06:34:13;;;;;;;13.00;9.10;;;;;;;1.32;60.95;102567.22;1617995;87;21048;-63
2021/11/10 06:36:39;;;;;;;10.72;7.40;;;;;;;1.37;60.38;102555.16;1637437;87;21001;-61
2021/11/10 06:39:05;;;;;;;15.48;8.40;;;;;;;1.42;60.61;102556.27;1638014;87;21077;-61
2021/11/10 06:41:32;;;;;;;10.00;7.55;;;;;;;1.40;60.20;102550.24;1618600;87;21053;-62
2021/11/10 06:43:58;;;;;;;11.45;8.33;;;;;;;1.39;60.29;102549.84;1589400;88;21058;-63
2021/11/10 06:46:24;;;;;;;;;;;;;;;1.39;60.44;102545.89;1573054;90;21623;-63
2021/11/10 06:48:50;;;;;;;13.03;7.60;;;;;;;1.48;60.54;102544.14;1587367;89;20416;-63
2021/11/10 06:51:16;;;;;;;12.18;8.00;;;;;;;1.48;60.47;102550.23;1595340;89;21074;-63
2021/11/10 06:53:44;;;;;;;23.57;13.93;;;;;;;1.57;60.36;102555.98;1618884;87;21622;-61
2021/11/10 06:56:10;;;;;;;;;;;;;;;1.62;60.10;102554.84;1577775;89;21255;-61
2021/11/10 06:58:38;;;;;;;25.52;14.98;;;;;;;1.67;59.93;102555.44;1612426;87;20276;-61
2021/11/10 07:01:05;;;;;;;31.40;15.47;;;;;;;1.64;59.98;102557.36;1631241;86;21121;-60
2021/11/10 07:03:31;;;;;;;20.10;13.97;;;;;;;1.67;59.90;102554.59;1610454;87;21086;-61
2021/11/10 07:05:59;;;;;;;18.90;12.33;;;;;;;1.72;59.62;102559.17;1608858;87;21070;-63
2021/11/10 07:08:24;;;;;;;21.68;14.07;;;;;;;1.70;59.36;102546.57;1586471;89;21132;-64
2021/11/10 07:10:51;;;;;;;21.75;12.28;;;;;;;1.67;59.40;102547.55;1610897;87;21086;-62
2021/11/10 07:13:19;;;;;;;20.67;12.33;;;;;;;1.67;59.40;102547.55;1622919;87;21053;-63
2021/11/10 07:15:47;;;;;;;17.73;11.93;;;;;;;1.72;59.31;102553.44;1602759;88;21039;-63
2021/11/10 07:18:14;;;;;;;18.83;11.77;;;;;;;1.73;59.29;102558.23;1598465;88;22273;-62
2021/11/10 07:20:40;;;;;;;;;;;;;;;1.81;59.20;102549.52;1602440;88;21058;-63
2021/11/10 07:23:07;;;;;;;24.07;13.40;;;;;;;1.85;58.88;102543.16;1599858;88;20158;-64
2021/11/10 07:25:34;;;;;;;21.87;13.57;;;;;;;1.85;58.92;102537.91;1602027;88;21057;-63
2021/11/10 07:28:00;;;;;;;25.85;14.28;;;;;;;1.89;58.79;102543.39;1592877;88;21073;-64
2021/11/10 07:30:27;;;;;;;23.77;14.63;;;;;;;1.94;58.63;102544.45;1622709;87;21034;-64
2021/11/10 07:32:53;;;;;;;21.57;14.30;;;;;;;1.98;58.77;102549.98;1622293;87;21169;-63
2021/11/10 07:35:20;;;;;;;22.70;14.18;;;;;;;2.13;57.84;102537.81;1567520;89;21049;-64
2021/11/10 07:37:48;;;;;;;27.17;15.53;;;;;;;2.13;57.84;102537.81;1580417;89;21166;-65
2021/11/10 07:40:17;;;;;;;17.17;11.57;;;;;;;2.19;57.69;102536.66;1622981;87;21007;-62
2021/11/10 07:42:45;;;;;;;20.10;11.80;;;;;;;2.25;57.07;102521.84;1605026;88;21010;-64
2021/11/10 07:45:18;;;;;;;15.57;11.00;;;;;;;2.30;56.49;102509.30;1608715;87;21545;-62
2021/11/10 07:47:41;;;;;;;16.60;11.23;;;;;;;2.31;56.04;102507.88;1613812;87;21132;-62
2021/11/10 07:50:16;;;;;;;21.47;11.40;;;;;;;2.33;56.01;102516.55;1617232;87;21069;-64
2021/11/10 07:52:42;;;;;;;15.77;9.73;;;;;;;2.33;55.62;102507.81;1611610;87;21018;-64
2021/11/10 07:55:10;;;;;;;15.23;9.17;;;;;;;2.31;55.36;102517.57;1621491;87;21104;-62
2021/11/10 07:57:38;;;;;;;11.27;9.37;;;;;;;2.23;54.98;102519.77;1613764;87;21100;-67
2021/11/10 08:00:11;;;;;;;12.57;9.67;;;;;;;2.17;54.98;102526.20;1612534;87;21077;-61
2021/11/10 08:02:43;;;;;;;12.67;8.17;;;;;;;2.22;54.97;102520.69;1624704;87;21009;-62
2021/11/10 08:05:13;;;;;;;18.67;9.90;;;;;;;2.23;54.71;102531.61;1617027;87;21106;-66
2021/11/10 08:07:40;;;;;;;16.63;7.83;;;;;;;2.24;54.66;102532.84;1611871;87;21022;-63
2021/11/10 08:10:11;;;;;;;16.57;10.07;;;;;;;2.26;54.42;102541.95;1615821;87;21512;-63
2021/11/10 08:12:41;;;;;;;12.20;7.37;;;;;;;2.33;54.19;102536.77;1583791;88;21064;-63
2021/11/10 08:15:12;;;;;;;14.63;8.43;;;;;;;2.42;53.92;102538.06;1617086;87;21066;-62
2021/11/10 08:17:39;;;;;;;15.03;7.87;;;;;;;2.48;53.72;102539.89;1616716;87;21089;-65
2021/11/10 08:20:11;;;;;;;11.60;7.53;;;;;;;2.60;53.14;102550.70;1616593;87;21075;-63
2021/11/10 08:22:44;;;;;;;17.17;7.10;;;;;;;2.68;52.83;102539.31;1618306;87;21617;-65
2021/11/10 08:25:14;;;;;;;9.10;7.27;;;;;;;2.73;52.35;102534.17;1595019;88;21131;-63
2021/11/10 08:27:40;;;;;;;11.43;7.97;;;;;;;2.84;52.11;102542.78;1621398;87;21162;-62
2021/11/10 08:30:13;;;;;;;13.53;8.93;;;;;;;2.90;51.57;102545.11;1618998;87;21576;-63
2021/11/10 08:32:40;;;;;;;13.53;9.60;;;;;;;2.93;51.67;102551.51;1619480;87;21131;-64
2021/11/10 08:35:08;;;;;;;;;;;;;;;2.97;51.79;102556.62;1619294;87;21054;-66
2021/11/10 08:37:35;;;;;;;14.38;10.32;;;;;;;3.01;51.48;102556.83;1617096;87;20193;-65
2021/11/10 08:40:03;;;;;;;14.53;9.70;;;;;;;2.97;51.66;102553.98;1617224;87;21079;-62
2021/11/10 08:42:35;;;;;;;11.97;9.00;;;;;;;3.00;51.64;102557.78;1619262;87;21403;-63
2021/11/10 08:45:13;;;;;;;16.10;8.80;;;;;;;3.09;51.42;102553.32;1612603;87;21089;-64
2021/11/10 08:47:45;;;;;;;18.27;10.27;;;;;;;3.17;50.67;102543.67;1613658;87;21081;-63
2021/11/10 08:50:16;;;;;;;13.50;8.77;;;;;;;3.18;50.73;102540.08;1607880;87;21096;-64
2021/11/10 08:52:44;;;;;;;11.50;8.63;;;;;;;3.18;50.11;102539.60;1617498;87;21037;-63
2021/11/10 08:55:15;;;;;;;16.10;8.43;;;;;;;3.12;49.03;102536.84;1604442;88;21104;-65
2021/11/10 08:57:49;;;;;;;16.23;9.23;;;;;;;3.09;49.31;102540.98;1625721;86;21022;-62
2021/11/10 09:00:26;;;;;;;16.73;9.67;;;;;;;3.11;49.65;102536.48;1625553;87;21057;-64
2021/11/10 09:02:55;;;;;;;14.10;9.37;;;;;;;3.14;50.21;102531.50;1631369;87;21049;-66
2021/11/10 09:05:22;;;;;;;15.13;9.63;;;;;;;3.25;50.30;102519.88;1631761;87;21029;-69
2021/11/10 09:07:48;;;;;;;13.77;9.50;;;;;;;3.39;50.11;102524.39;1625272;86;21557;-65
2021/11/10 09:10:17;;;;;;;16.32;10.13;;;;;;;3.53;49.76;102520.95;1629763;86;21090;-68
2021/11/10 09:12:46;;;;;;;19.00;10.10;;;;;;;3.62;49.61;102525.69;1630645;85;21046;-64
2021/11/10 09:15:14;;;;;;;15.70;9.70;;;;;;;3.73;49.29;102528.16;1629003;87;21605;-66
2021/11/10 09:17:41;;;;;;;14.93;9.63;;;;;;;3.82;48.26;102520.55;1629772;87;21144;-64
2021/11/10 09:20:14;;;;;;;18.23;11.37;;;;;;;3.87;48.20;102517.65;1630452;87;21105;-65
2021/11/10 09:22:42;;;;;;;16.23;12.30;;;;;;;3.91;48.24;102515.20;1632429;87;21080;-62
2021/11/10 09:25:14;;;;;;;18.93;11.97;;;;;;;3.96;48.22;102520.22;1634657;87;21034;-64
2021/11/10 09:27:41;;;;;;;15.57;10.90;;;;;;;3.97;48.27;102509.55;1632541;87;21196;-65
2021/11/10 09:30:12;;;;;;;17.27;13.00;;;;;;;4.00;48.19;102500.62;1624156;87;21116;-64
2021/11/10 09:32:44;;;;;;;20.77;14.33;;;;;;;4.00;47.71;102493.55;1628849;87;21024;-65
2021/11/10 09:35:14;;;;;;;17.20;11.97;;;;;;;4.01;47.89;102490.42;1625597;86;21687;-65
2021/11/10 09:37:41;;;;;;;19.43;12.87;;;;;;;3.97;47.49;102500.80;1633164;87;21421;-63
2021/11/10 09:40:13;;;;;;;16.00;12.70;;;;;;;3.94;47.35;102503.60;1629115;87;21047;-65
2021/11/10 09:42:41;;;;;;;15.37;11.23;;;;;;;3.96;47.53;102492.52;1624505;87;21021;-63
2021/11/10 09:45:14;;;;;;;17.53;12.07;;;;;;;4.03;47.79;102503.92;1627416;87;21004;-64
2021/11/10 09:47:42;;;;;;;21.53;12.23;;;;;;;4.09;47.51;102507.98;1625551;87;21212;-64
2021/11/10 09:50:12;;;;;;;16.97;12.23;;;;;;;4.18;47.93;102504.79;1625163;87;21074;-64
2021/11/10 09:52:39;;;;;;;30.23;17.60;;;;;;;4.36;47.64;102501.95;1625324;87;21083;-63
2021/11/10 09:55:11;;;;;;;23.33;17.13;;;;;;;4.44;46.98;102497.87;1617670;87;21565;-64
2021/11/10 09:57:39;;;;;;;28.37;16.73;;;;;;;4.44;47.09;102499.20;1632767;87;21064;-64
2021/11/10 10:00:17;;;;;;;24.30;16.47;;;;;;;4.51;47.28;102496.20;1634986;87;21010;-67
2021/11/10 10:02:46;;;;;;;27.47;18.63;;;;;;;4.62;47.02;102495.05;1633555;87;21090;-65
2021/11/10 10:05:18;;;;;;;25.57;17.73;;;;;;;4.71;46.90;102492.28;1631274;87;21065;-65
2021/11/10 10:07:49;;;;;;;27.47;18.60;;;;;;;4.77;46.92;102495.41;1632615;87;21056;-66
2021/11/10 10:10:15;;;;;;;34.87;18.70;;;;;;;4.88;46.64;102495.56;1630110;87;20975;-64
2021/11/10 10:12:43;;;;;;;27.00;17.70;;;;;;;5.01;45.49;102497.41;1635002;85;20986;-65
2021/11/10 10:15:11;;;;;;;26.30;18.65;;;;;;;5.10;45.23;102503.91;1633846;87;20999;-65
2021/11/10 10:17:43;;;;;;;33.33;20.70;;;;;;;5.16;45.42;102499.08;1632126;87;21483;-64
2021/11/10 10:20:38;;;;;;;31.53;21.13;;;;;;;5.22;45.62;102490.73;1634876;87;21976;-67
2021/11/10 10:23:16;;;;;;;30.33;19.43;;;;;;;5.24;45.53;102491.48;1633873;86;21080;-65
2021/11/10 10:25:53;;;;;;;28.10;18.10;;;;;;;5.18;44.79;102488.38;1634953;87;21504;-64
2021/11/10 10:28:25;;;;;;;35.47;17.57;;;;;;;5.03;44.69;102486.28;1628605;87;21631;-64
2021/11/10 10:32:38;;;;;;;31.07;16.70;;;;;;;4.94;44.65;102481.59;1817494;76;23445;-64
2021/11/10 10:35:33;;;;;;;26.90;15.37;;;;;;;4.87;43.32;102479.80;1743789;78;21032;-66
2021/11/10 10:38:00;;;;;;;24.67;15.07;;;;;;;4.85;42.97;102481.22;1716920;81;21611;-65
2021/11/10 10:40:30;;;;;;;20.07;15.20;;;;;;;4.85;42.97;102468.48;1728696;81;21009;-65
2021/11/10 10:42:57;;;;;;;24.20;13.33;;;;;;;4.89;42.74;102456.77;1731411;81;21057;-64
2021/11/10 10:45:42;;;;;;;25.10;13.17;;;;;;;4.98;41.32;102458.81;1731439;81;21086;-66
2021/11/10 10:48:19;;;;;;;21.33;12.93;;;;;;;5.04;40.65;102467.66;1720857;81;20968;-65
2021/11/10 10:50:51;;;;;;;26.70;13.87;;;;;;;5.05;40.09;102466.73;1712743;81;21016;-65
2021/11/10 10:53:43;;;;;;;18.50;12.87;;;;;;;5.05;40.42;102468.53;1732923;81;21127;-66
2021/11/10 10:56:26;;;;;;;21.63;13.80;;;;;;;5.02;40.73;102460.30;1715087;80;21147;-64
2021/11/10 10:59:01;;;;;;;21.97;14.47;;;;;;;5.01;41.15;102470.52;1720195;81;21005;-64
2021/11/10 11:01:40;;;;;;;26.90;15.27;;;;;;;4.97;41.20;102470.35;1734709;80;21010;-64
2021/11/10 11:04:13;;;;;;;21.87;14.83;;;;;;;4.95;41.93;102469.58;1729946;81;21349;-66
2021/11/10 11:06:48;;;;;;;22.00;14.97;;;;;;;4.93;41.97;102469.31;1717599;81;21096;-66
2021/11/10 11:09:27;;;;;;;26.73;15.47;;;;;;;4.75;42.74;102462.11;1732840;81;21008;-64
2021/11/10 11:14:41;;;;;;;29.53;16.53;;;;;;;4.70;43.12;102462.87;1692988;83;21030;-63
2021/11/10 11:17:25;;;;;;;23.83;16.43;;;;;;;4.67;43.25;102455.52;1700197;83;21144;-67
2021/11/10 11:19:57;;;;;;;31.07;17.17;;;;;;;4.72;43.62;102453.89;1687913;83;21004;-65
2021/11/10 11:22:28;;;;;;;27.37;13.70;;;;;;;4.80;43.46;102444.14;1692600;80;21090;-64
2021/11/10 11:24:57;;;;;;;21.83;13.60;;;;;;;4.88;43.05;102440.55;1658448;84;21065;-64
2021/11/10 11:27:28;;;;;;;25.17;13.43;;;;;;;4.95;42.67;102439.66;1671375;84;21190;-63
2021/11/10 11:30:05;;;;;;;16.10;12.27;;;;;;;5.01;42.47;102435.29;1671234;84;21553;-62
2021/11/10 11:32:41;;;;;;;17.75;11.10;;;;;;;5.07;42.50;102439.72;1661610;84;21065;-63
2021/11/10 11:35:40;;;;;;;17.60;12.03;;;;;;;5.20;41.60;102450.81;1664057;81;21537;-64
2021/11/10 11:38:11;;;;;;;22.70;12.20;;;;;;;4.97;40.76;102405.60;1664561;84;20990;-63
2021/11/10 11:40:40;;;;;;;20.53;11.30;;;;;;;5.19;40.66;102453.91;1653814;84;21037;-64
2021/11/10 11:43:10;;;;;;;25.33;10.53;;;;;;;5.22;40.66;102453.72;1640158;84;21025;-63
2021/11/10 11:45:41;;;;;;;17.53;10.13;;;;;;;5.26;41.03;102453.05;1668108;81;21129;-63
2021/11/10 11:48:08;;;;;;;21.93;10.73;;;;;;;5.32;40.95;102453.95;1650466;84;21049;-62
2021/11/10 11:50:36;;;;;;;15.70;10.03;;;;;;;5.37;40.66;102449.21;1665307;84;21069;-61
2021/11/10 11:53:02;;;;;;;19.60;10.00;;;;;;;5.39;38.96;102447.31;1657144;84;21018;-66
2021/11/10 11:55:32;;;;;;;;;;;;;;;5.41;39.16;102441.92;1656369;83;21069;-67
2021/11/10 11:58:18;;;;;;;18.27;9.43;;;;;;;5.42;39.23;102447.08;1676310;82;20128;-65
2021/11/10 12:00:50;;;;;;;11.60;7.60;;;;;;;5.41;39.44;102447.21;1701921;83;21021;-64
2021/11/10 12:03:31;;;;;;;10.67;7.33;;;;;;;5.49;38.20;102447.53;1686761;83;21086;-66
2021/11/10 12:06:09;;;;;;;12.53;7.57;;;;;;;5.55;37.71;102447.59;1703426;83;21033;-66
2021/11/10 12:08:50;;;;;;;11.90;7.67;;;;;;;5.60;38.04;102448.98;1687703;83;21342;-65